createdAt,value
2019-06-08T00:02:29.228Z,72.60
2019-06-08T00:04:59.344Z,72.70
2019-06-08T00:07:29.430Z,72.80
2019-06-08T00:09:59.423Z,72.80
2019-06-08T00:12:29.483Z,72.90
2019-06-08T00:14:59.530Z,72.90
2019-06-08T00:17:37.936Z,73.10
2019-06-08T00:20:01.105Z,73.00
2019-06-08T00:22:31.215Z,72.90
2019-06-08T00:25:01.434Z,73.00
2019-06-08T00:27:31.711Z,72.90
2019-06-08T00:30:01.799Z,72.80
2019-06-08T00:32:32.298Z,73.30
2019-06-08T00:35:02.386Z,73.40
2019-06-08T00:37:32.523Z,73.40
2019-06-08T00:40:02.413Z,73.20
2019-06-08T00:42:32.526Z,73.30
2019-06-08T00:45:02.606Z,73.10
2019-06-08T00:47:47.091Z,73.20
2019-06-08T00:50:06.262Z,73.30
2019-06-08T00:52:36.189Z,73.10
2019-06-08T00:55:07.072Z,72.80
2019-06-08T00:57:37.139Z,72.80
2019-06-08T01:00:10.819Z,72.70
2019-06-08T01:02:40.028Z,72.80
2019-06-08T01:05:11.444Z,72.40
2019-06-08T01:07:41.433Z,72.00
2019-06-08T01:10:12.138Z,72.40
2019-06-08T01:12:42.063Z,72.70
2019-06-08T01:15:13.717Z,73.10
2019-06-08T01:17:43.718Z,73.30
2019-06-08T01:20:14.132Z,73.10
2019-06-08T01:22:44.227Z,73.20
2019-06-08T01:25:14.276Z,73.10
2019-06-08T01:27:44.367Z,73.10
2019-06-08T01:30:15.021Z,73.20
2019-06-08T01:32:45.072Z,73.50
2019-06-08T01:35:15.226Z,73.80
2019-06-08T01:37:45.260Z,74.20
2019-06-08T01:40:15.465Z,74.40
2019-06-08T01:42:45.486Z,74.60
2019-06-08T01:45:33.166Z,74.50
2019-06-08T01:48:18.902Z,74.80
2019-06-08T01:50:37.368Z,75.40
2019-06-08T01:53:07.376Z,76.00
2019-06-08T01:55:37.630Z,76.50
2019-06-08T01:58:07.777Z,76.70
2019-06-08T02:00:41.508Z,77.00
2019-06-08T02:03:09.676Z,77.30
2019-06-08T02:05:40.982Z,77.60
2019-06-08T02:08:11.003Z,77.80
2019-06-08T02:10:41.008Z,77.80
2019-06-08T02:13:11.118Z,77.60
2019-06-08T02:15:41.260Z,78.10
2019-06-08T02:18:12.936Z,77.50
2019-06-08T02:20:42.874Z,77.40
2019-06-08T02:23:12.833Z,77.00
2019-06-08T02:25:43.470Z,76.80
2019-06-08T02:28:13.447Z,76.80
2019-06-08T02:30:43.564Z,76.40
2019-06-08T02:33:13.669Z,76.40
2019-06-08T02:35:43.600Z,76.30
2019-06-08T02:38:13.686Z,76.20
2019-06-08T02:40:43.672Z,75.90
2019-06-08T02:43:13.709Z,76.20
2019-06-08T02:45:43.716Z,76.60
2019-06-08T02:48:13.798Z,76.40
2019-06-08T02:50:52.962Z,76.20
2019-06-08T02:53:24.510Z,76.30
2019-06-08T02:55:55.152Z,76.70
2019-06-08T02:58:25.846Z,76.70
2019-06-08T03:00:56.909Z,76.50
2019-06-08T03:03:29.543Z,76.60
2019-06-08T03:06:02.727Z,76.50
2019-06-08T03:08:38.968Z,76.10
2019-06-08T03:11:09.165Z,76.50
2019-06-08T03:13:42.535Z,76.40
2019-06-08T03:16:12.861Z,75.90
2019-06-08T03:18:42.832Z,75.80
2019-06-08T03:21:12.832Z,75.60
2019-06-08T03:23:43.465Z,75.50
2019-06-08T03:26:13.673Z,75.40
2019-06-08T03:28:44.502Z,75.80
2019-06-08T03:31:14.617Z,75.80
2019-06-08T03:33:53.835Z,75.70
2019-06-08T03:36:16.499Z,75.50
2019-06-08T03:38:46.462Z,75.40
2019-06-08T03:41:16.488Z,75.30
2019-06-08T03:43:46.662Z,74.60
2019-06-08T03:46:16.769Z,74.80
2019-06-08T03:48:46.725Z,75.90
2019-06-08T03:51:16.780Z,75.70
2019-06-08T03:53:47.300Z,76.20
2019-06-08T03:56:18.561Z,74.80
2019-06-08T03:58:48.739Z,73.90
2019-06-08T04:01:18.790Z,73.20
2019-06-08T04:03:50.273Z,71.60
2019-06-08T04:06:20.609Z,71.70
2019-06-08T04:08:50.642Z,71.10
2019-06-08T04:11:20.626Z,69.70
2019-06-08T04:13:50.767Z,68.10
2019-06-08T04:16:22.317Z,66.40
2019-06-08T04:18:52.389Z,65.00
2019-06-08T04:21:22.487Z,64.30
2019-06-08T04:23:52.427Z,63.70
2019-06-08T04:26:22.627Z,62.60
2019-06-08T04:28:52.702Z,62.60
2019-06-08T04:31:22.761Z,63.10
2019-06-08T04:33:52.775Z,63.40
2019-06-08T04:36:22.788Z,64.80
2019-06-08T04:38:52.921Z,66.10
2019-06-08T04:41:22.868Z,66.20
2019-06-08T04:43:52.864Z,66.40
2019-06-08T04:46:22.961Z,64.80
2019-06-08T04:48:53.137Z,64.10
2019-06-08T04:51:23.117Z,64.50
2019-06-08T04:53:53.165Z,64.10
2019-06-08T04:56:23.119Z,65.00
2019-06-08T04:58:53.260Z,65.00
2019-06-08T05:01:23.452Z,63.70
2019-06-08T05:03:53.438Z,60.30
2019-06-08T05:06:23.451Z,57.10
2019-06-08T05:08:53.501Z,53.60
2019-06-08T05:11:23.475Z,49.60
2019-06-08T05:13:53.529Z,47.10
2019-06-08T05:16:23.673Z,44.70
2019-06-08T05:18:53.809Z,42.70
2019-06-08T05:21:23.994Z,41.60
2019-06-08T05:23:58.685Z,40.20
2019-06-08T05:26:25.766Z,39.00
2019-06-08T05:28:55.827Z,39.20
2019-06-08T05:31:25.936Z,38.50
2019-06-08T05:33:55.977Z,37.80
2019-06-08T05:36:26.081Z,37.30
2019-06-08T05:38:56.156Z,37.30
2019-06-08T05:41:26.167Z,36.90
2019-06-08T05:43:56.232Z,36.10
2019-06-08T05:46:26.217Z,35.20
2019-06-08T05:48:56.297Z,35.50
2019-06-08T05:51:26.220Z,35.00
2019-06-08T05:53:56.112Z,34.50
2019-06-08T05:56:26.170Z,33.80
2019-06-08T05:58:56.195Z,33.00
2019-06-08T06:01:26.213Z,32.60
2019-06-08T06:03:56.349Z,32.60
2019-06-08T06:06:26.401Z,33.10
2019-06-08T06:08:56.476Z,32.60
2019-06-08T06:11:26.518Z,32.30
2019-06-08T06:13:56.580Z,31.10
2019-06-08T06:16:26.639Z,31.10
2019-06-08T06:18:56.704Z,30.80
2019-06-08T06:21:26.854Z,30.70
2019-06-08T06:23:56.984Z,30.00
2019-06-08T06:26:27.001Z,29.70
2019-06-08T06:28:57.177Z,30.30
2019-06-08T06:31:27.371Z,30.90
2019-06-08T06:33:57.495Z,30.30
2019-06-08T06:36:27.562Z,30.00
2019-06-08T06:38:57.678Z,29.80
2019-06-08T06:41:27.821Z,29.30
2019-06-08T06:43:57.701Z,29.00
2019-06-08T06:46:28.942Z,29.30
2019-06-08T06:48:58.991Z,29.20
2019-06-08T06:51:29.072Z,30.00
2019-06-08T06:53:59.184Z,31.00
2019-06-08T06:56:29.245Z,30.90
2019-06-08T06:58:59.243Z,30.70
2019-06-08T07:01:29.308Z,30.00
2019-06-08T07:04:00.449Z,30.40
2019-06-08T07:06:30.743Z,33.60
2019-06-08T07:09:00.743Z,32.80
2019-06-08T07:11:32.559Z,33.90
2019-06-08T07:14:02.598Z,31.90
2019-06-08T07:16:32.659Z,32.50
2019-06-08T07:19:02.748Z,32.20
2019-06-08T07:21:41.342Z,32.00
2019-06-08T07:24:04.836Z,30.00
2019-06-08T07:26:34.897Z,29.30
2019-06-08T07:29:06.097Z,28.60
2019-06-08T07:31:36.216Z,28.00
2019-06-08T07:34:06.383Z,28.90
2019-06-08T07:36:36.508Z,28.50
2019-06-08T07:39:07.967Z,28.10
2019-06-08T07:41:38.133Z,28.40
2019-06-08T07:44:08.100Z,27.60
2019-06-08T07:46:38.046Z,27.70
2019-06-08T07:49:08.117Z,27.90
2019-06-08T07:51:38.113Z,27.70
2019-06-08T07:54:08.146Z,27.70
2019-06-08T07:56:38.136Z,27.60
2019-06-08T07:59:08.048Z,27.50
2019-06-08T08:01:38.174Z,28.10
2019-06-08T08:04:09.397Z,28.70
2019-06-08T08:06:39.481Z,29.00
2019-06-08T08:09:09.515Z,28.90
2019-06-08T08:11:39.733Z,28.80
2019-06-08T08:14:09.722Z,29.60
2019-06-08T08:16:39.788Z,28.90
2019-06-08T08:19:10.843Z,28.40
2019-06-08T08:21:40.973Z,28.40
2019-06-08T08:24:11.151Z,27.70
2019-06-08T08:26:41.147Z,27.10
2019-06-08T08:29:11.320Z,27.50
2019-06-08T08:31:42.644Z,27.90
2019-06-08T08:34:12.782Z,26.90
2019-06-08T08:36:42.888Z,27.80
2019-06-08T08:39:12.893Z,28.20
2019-06-08T08:41:43.604Z,28.30
2019-06-08T08:44:17.437Z,29.40
2019-06-08T08:46:48.710Z,29.00
2019-06-08T08:49:18.365Z,28.10
2019-06-08T08:51:50.645Z,28.20
2019-06-08T08:54:20.207Z,28.00
2019-06-08T08:56:52.245Z,28.40
2019-06-08T08:59:21.758Z,28.40
2019-06-08T09:01:52.931Z,28.30
2019-06-08T09:04:22.927Z,28.60
2019-06-08T09:06:53.537Z,28.40
2019-06-08T09:09:23.862Z,29.00
2019-06-08T09:11:54.887Z,28.50
2019-06-08T09:14:24.812Z,29.20
2019-06-08T09:16:55.620Z,28.90
2019-06-08T09:19:28.109Z,28.30
2019-06-08T09:22:00.346Z,28.00
2019-06-08T09:24:29.245Z,27.80
2019-06-08T09:27:03.689Z,27.40
2019-06-08T09:29:31.136Z,27.10
2019-06-08T09:32:03.164Z,26.70
2019-06-08T09:34:31.923Z,27.90
2019-06-08T09:37:03.462Z,27.90
2019-06-08T09:39:32.718Z,28.20
2019-06-08T09:42:03.609Z,29.10
2019-06-08T09:44:33.447Z,29.20
2019-06-08T09:47:09.441Z,28.10
2019-06-08T09:49:37.529Z,28.90
2019-06-08T09:52:08.558Z,30.00
2019-06-08T09:54:38.426Z,32.40
2019-06-08T09:57:09.218Z,34.60
2019-06-08T09:59:40.812Z,33.60
2019-06-08T10:02:12.984Z,32.90
2019-06-08T10:04:42.863Z,32.00
2019-06-08T10:07:12.965Z,30.70
2019-06-08T10:09:43.543Z,30.30
2019-06-08T10:12:13.740Z,29.80
2019-06-08T10:14:45.014Z,29.60
2019-06-08T10:17:14.978Z,28.60
2019-06-08T10:19:47.563Z,28.50
2019-06-08T10:22:18.029Z,28.40
2019-06-08T10:24:49.017Z,29.10
2019-06-08T10:27:19.673Z,29.50
2019-06-08T10:29:49.657Z,29.70
2019-06-08T10:32:22.271Z,30.20
2019-06-08T10:34:52.391Z,29.80
2019-06-08T10:37:22.620Z,29.70
2019-06-08T10:39:52.688Z,29.30
2019-06-08T10:42:22.868Z,29.70
2019-06-08T10:44:52.833Z,28.70
2019-06-08T10:47:22.790Z,30.20
2019-06-08T10:49:52.852Z,30.60
2019-06-08T10:52:22.984Z,30.30
2019-06-08T10:54:53.086Z,29.60
2019-06-08T10:57:23.239Z,29.70
2019-06-08T10:59:53.511Z,30.90
2019-06-08T11:02:23.705Z,32.40
2019-06-08T11:04:53.724Z,33.20
2019-06-08T11:07:23.801Z,34.70
2019-06-08T11:09:53.971Z,36.20
2019-06-08T11:12:24.010Z,37.90
2019-06-08T11:14:53.932Z,38.10
2019-06-08T11:17:24.100Z,38.80
2019-06-08T11:19:54.261Z,40.00
2019-06-08T11:22:24.253Z,41.60
2019-06-08T11:24:54.210Z,41.70
2019-06-08T11:27:24.195Z,42.60
2019-06-08T11:29:54.286Z,40.50
2019-06-08T11:32:24.227Z,41.70
2019-06-08T11:34:54.287Z,41.90
2019-06-08T11:37:24.301Z,42.00
2019-06-08T11:39:54.220Z,43.00
2019-06-08T11:42:26.250Z,42.50
2019-06-08T11:44:58.531Z,42.60
2019-06-08T11:47:27.751Z,43.20
2019-06-08T11:50:00.555Z,42.80
2019-06-08T11:52:30.933Z,43.80
2019-06-08T11:55:03.484Z,44.80
2019-06-08T11:57:34.127Z,44.00
2019-06-08T12:00:15.021Z,42.70
2019-06-08T12:02:41.345Z,41.40
2019-06-08T12:05:12.911Z,41.60
2019-06-08T12:07:42.558Z,42.90
2019-06-08T12:10:14.163Z,43.60
2019-06-08T12:12:44.388Z,42.70
2019-06-08T12:15:17.489Z,41.60
2019-06-08T12:17:48.233Z,41.00
2019-06-08T12:20:20.662Z,41.30
2019-06-08T12:22:49.552Z,42.20
2019-06-08T12:25:19.591Z,41.10
2019-06-08T12:27:52.585Z,41.10
2019-06-08T12:30:25.794Z,41.50
2019-06-08T12:32:53.277Z,40.40
2019-06-08T12:35:23.223Z,38.80
2019-06-08T12:37:53.231Z,39.10
2019-06-08T12:40:23.336Z,38.60
2019-06-08T12:42:53.711Z,39.70
2019-06-08T12:45:23.759Z,40.10
2019-06-08T12:47:53.874Z,38.80
2019-06-08T12:50:23.914Z,40.20
2019-06-08T12:52:53.872Z,37.90
2019-06-08T12:55:25.386Z,39.20
2019-06-08T12:57:58.201Z,37.90
2019-06-08T13:00:28.670Z,36.70
2019-06-08T13:02:58.779Z,38.90
2019-06-08T13:05:28.807Z,39.20
2019-06-08T13:07:58.996Z,36.70
2019-06-08T13:10:29.225Z,36.40
2019-06-08T13:12:59.530Z,36.80
2019-06-08T13:15:30.917Z,36.30
2019-06-08T13:18:01.222Z,37.00
2019-06-08T13:20:31.210Z,37.30
2019-06-08T13:23:01.147Z,38.10
2019-06-08T13:25:40.150Z,35.50
2019-06-08T13:28:02.905Z,36.70
2019-06-08T13:30:34.050Z,36.40
2019-06-08T13:33:04.123Z,34.30
2019-06-08T13:35:34.215Z,34.10
2019-06-08T13:38:04.299Z,36.30
2019-06-08T13:40:34.350Z,39.40
2019-06-08T13:43:07.964Z,39.00
2019-06-08T13:45:39.410Z,39.30
2019-06-08T13:48:09.145Z,39.00
2019-06-08T13:50:39.342Z,38.50
2019-06-08T13:53:10.858Z,37.30
2019-06-08T13:55:53.367Z,36.30
2019-06-08T13:58:15.130Z,34.90
2019-06-08T14:00:47.661Z,37.20
2019-06-08T14:03:18.608Z,38.60
2019-06-08T14:05:48.639Z,39.30
2019-06-08T14:08:20.695Z,39.90
2019-06-08T14:10:50.476Z,40.00
2019-06-08T14:13:26.807Z,39.50
2019-06-08T14:15:52.176Z,38.80
2019-06-08T14:18:26.331Z,37.80
2019-06-08T14:20:54.653Z,36.60
2019-06-08T14:23:25.684Z,37.30
2019-06-08T14:25:57.800Z,36.60
2019-06-08T14:28:29.010Z,35.50
2019-06-08T14:30:59.390Z,35.90
2019-06-08T14:33:33.386Z,34.80
2019-06-08T14:36:01.342Z,35.00
2019-06-08T14:38:38.249Z,34.80
2019-06-08T14:41:03.119Z,35.20
2019-06-08T14:43:33.209Z,36.00
2019-06-08T14:46:03.217Z,35.60
2019-06-08T14:48:34.018Z,36.20
2019-06-08T14:51:04.257Z,34.70
2019-06-08T14:53:34.312Z,36.10
2019-06-08T14:56:08.375Z,36.80
2019-06-08T14:58:38.386Z,35.90
2019-06-08T15:01:08.014Z,35.80
2019-06-08T15:03:38.210Z,36.30
2019-06-08T15:06:08.347Z,36.70
2019-06-08T15:08:38.516Z,36.50
2019-06-08T15:11:08.826Z,35.90
2019-06-08T15:13:40.456Z,36.00
2019-06-08T15:16:11.983Z,36.20
2019-06-08T15:18:41.888Z,34.40
2019-06-08T15:21:11.909Z,32.90
2019-06-08T15:23:41.838Z,32.10
2019-06-08T15:26:23.096Z,32.10
2019-06-08T15:28:43.399Z,29.30
2019-06-08T15:31:13.427Z,31.30
2019-06-08T15:33:43.572Z,31.80
2019-06-08T15:36:13.613Z,31.40
2019-06-08T15:38:43.745Z,30.80
2019-06-08T15:41:13.759Z,29.80
2019-06-08T15:43:43.747Z,29.60
2019-06-08T15:46:13.708Z,29.80
2019-06-08T15:48:43.653Z,30.30
2019-06-08T15:51:13.650Z,29.80
2019-06-08T15:53:43.602Z,30.50
2019-06-08T15:56:13.603Z,31.30
2019-06-08T15:58:43.447Z,31.10
2019-06-08T16:01:14.789Z,31.10
2019-06-08T16:03:44.931Z,31.30
2019-06-08T16:06:14.955Z,31.90
2019-06-08T16:08:45.927Z,30.30
2019-06-08T16:11:15.950Z,30.80
2019-06-08T16:13:45.926Z,30.80
2019-06-08T16:16:15.924Z,31.10
2019-06-08T16:18:45.941Z,31.50
2019-06-08T16:21:15.990Z,31.30
2019-06-08T16:23:47.066Z,31.60
2019-06-08T16:26:17.385Z,31.30
2019-06-08T16:28:47.510Z,31.40
2019-06-08T16:31:17.667Z,32.60
2019-06-08T16:33:47.855Z,31.60
2019-06-08T16:36:17.971Z,30.90
2019-06-08T16:38:48.047Z,32.60
2019-06-08T16:41:18.166Z,32.70
2019-06-08T16:43:48.251Z,33.20
2019-06-08T16:46:18.322Z,33.40
2019-06-08T16:48:48.474Z,33.90
2019-06-08T16:51:18.516Z,34.10
2019-06-08T16:53:48.599Z,34.10
2019-06-08T16:56:18.518Z,34.60
2019-06-08T16:58:48.842Z,34.30
2019-06-08T17:01:18.854Z,34.70
2019-06-08T17:03:48.998Z,35.20
2019-06-08T17:06:19.054Z,35.40
2019-06-08T17:08:49.281Z,35.40
2019-06-08T17:11:19.397Z,34.90
2019-06-08T17:13:49.427Z,35.30
2019-06-08T17:16:19.516Z,35.60
2019-06-08T17:18:49.602Z,36.20
2019-06-08T17:21:19.887Z,37.30
2019-06-08T17:23:49.907Z,37.10
2019-06-08T17:26:20.026Z,36.30
2019-06-08T17:28:50.056Z,36.70
2019-06-08T17:31:20.040Z,36.20
2019-06-08T17:33:50.107Z,35.90
2019-06-08T17:36:20.073Z,35.80
2019-06-08T17:38:50.130Z,36.10
2019-06-08T17:41:20.571Z,36.00
2019-06-08T17:43:50.679Z,36.30
2019-06-08T17:46:20.822Z,36.40
2019-06-08T17:48:50.759Z,36.30
2019-06-08T17:51:21.648Z,36.40
2019-06-08T17:53:51.813Z,36.60
2019-06-08T17:56:21.815Z,36.90
2019-06-08T17:58:51.827Z,37.20
2019-06-08T18:01:21.993Z,37.20
2019-06-08T18:03:52.037Z,37.40
2019-06-08T18:06:22.079Z,37.60
2019-06-08T18:08:52.128Z,38.10
2019-06-08T18:11:22.216Z,38.70
2019-06-08T18:13:52.161Z,39.20
2019-06-08T18:16:22.354Z,39.50
2019-06-08T18:18:52.341Z,39.40
2019-06-08T18:21:22.440Z,39.70
2019-06-08T18:23:52.561Z,39.90
2019-06-08T18:26:22.635Z,40.00
2019-06-08T18:28:55.033Z,40.10
2019-06-08T18:31:24.230Z,40.20
2019-06-08T18:33:54.298Z,40.20
2019-06-08T18:36:24.231Z,40.40
2019-06-08T18:38:54.267Z,40.50
2019-06-08T18:41:24.263Z,41.30
2019-06-08T18:43:54.198Z,41.90
2019-06-08T18:46:24.227Z,42.70
2019-06-08T18:48:54.314Z,43.50
2019-06-08T18:51:24.403Z,44.40
2019-06-08T18:54:08.782Z,45.30
2019-06-08T18:56:27.581Z,46.20
2019-06-08T18:58:58.771Z,46.40
2019-06-08T19:01:28.710Z,46.20
2019-06-08T19:03:58.909Z,46.50
2019-06-08T19:06:29.737Z,46.10
2019-06-08T19:09:01.033Z,46.10
2019-06-08T19:11:32.641Z,46.30
2019-06-08T19:14:03.399Z,46.50
2019-06-08T19:16:33.379Z,46.30
2019-06-08T19:19:03.450Z,46.50
2019-06-08T19:21:33.510Z,46.80
2019-06-08T19:24:03.596Z,46.80
2019-06-08T19:26:33.575Z,46.80
2019-06-08T19:29:03.611Z,47.10
2019-06-08T19:31:33.857Z,47.60
2019-06-08T19:34:03.956Z,48.30
2019-06-08T19:36:34.073Z,48.40
2019-06-08T19:39:07.125Z,48.60
2019-06-08T19:41:38.048Z,49.00
2019-06-08T19:44:09.028Z,48.90
2019-06-08T19:46:40.303Z,48.60
2019-06-08T19:49:11.568Z,48.50
2019-06-08T19:51:42.875Z,48.40
2019-06-08T19:54:13.231Z,48.20
2019-06-08T19:56:43.326Z,47.90
2019-06-08T19:59:13.321Z,48.60
2019-06-08T20:01:43.573Z,49.10
2019-06-08T20:04:13.621Z,49.60
2019-06-08T20:06:44.844Z,50.10
2019-06-08T20:09:17.267Z,50.50
2019-06-08T20:11:53.391Z,50.90
2019-06-08T20:14:18.729Z,50.90
2019-06-08T20:16:50.590Z,51.90
2019-06-08T20:19:20.873Z,53.00
2019-06-08T20:21:51.563Z,52.30
2019-06-08T20:24:21.706Z,52.70
2019-06-08T20:26:53.378Z,53.50
2019-06-08T20:29:23.422Z,53.90
2019-06-08T20:31:53.811Z,55.00
2019-06-08T20:34:23.939Z,55.50
2019-06-08T20:36:53.925Z,56.00
2019-06-08T20:39:24.026Z,57.40
2019-06-08T20:41:54.226Z,56.40
2019-06-08T20:44:24.327Z,56.50
2019-06-08T20:46:54.388Z,56.10
2019-06-08T20:49:24.534Z,56.50
2019-06-08T20:51:54.573Z,56.70
2019-06-08T20:54:24.590Z,56.90
2019-06-08T20:56:54.588Z,56.80
2019-06-08T20:59:33.009Z,56.90
2019-06-08T21:01:58.627Z,57.00
2019-06-08T21:04:28.104Z,57.20
2019-06-08T21:06:58.167Z,57.30
2019-06-08T21:09:28.261Z,57.50
2019-06-08T21:11:58.844Z,57.50
2019-06-08T21:14:29.118Z,57.60
2019-06-08T21:16:59.163Z,57.60
2019-06-08T21:19:29.118Z,57.80
2019-06-08T21:21:59.494Z,57.60
2019-06-08T21:24:29.772Z,57.70
2019-06-08T21:27:00.566Z,57.80
2019-06-08T21:29:46.868Z,57.80
2019-06-08T21:32:03.033Z,57.80
2019-06-08T21:34:33.398Z,58.00
2019-06-08T21:37:03.455Z,58.30
2019-06-08T21:39:36.057Z,58.40
2019-06-08T21:42:05.027Z,58.00
2019-06-08T21:44:37.247Z,58.20
2019-06-08T21:47:07.869Z,57.90
2019-06-08T21:49:38.515Z,58.30
2019-06-08T21:52:08.733Z,58.20
2019-06-08T21:54:38.862Z,58.10
2019-06-08T21:57:10.000Z,58.30
2019-06-08T21:59:40.150Z,57.80
2019-06-08T22:02:10.357Z,58.10
2019-06-08T22:04:40.371Z,58.20
2019-06-08T22:07:10.503Z,58.10
2019-06-08T22:09:40.606Z,57.70
2019-06-08T22:12:10.673Z,57.80
2019-06-08T22:14:40.831Z,57.80
2019-06-08T22:17:10.874Z,58.50
2019-06-08T22:19:40.777Z,57.10
2019-06-08T22:22:10.827Z,57.10
2019-06-08T22:24:40.839Z,56.90
2019-06-08T22:27:10.762Z,57.00
2019-06-08T22:29:40.723Z,57.00
2019-06-08T22:32:10.796Z,57.20
2019-06-08T22:34:40.838Z,57.50
2019-06-08T22:37:10.952Z,57.60
2019-06-08T22:39:40.999Z,57.80
2019-06-08T22:42:11.621Z,58.10
2019-06-08T22:44:41.870Z,58.20
2019-06-08T22:47:12.014Z,58.50
2019-06-08T22:49:41.922Z,58.80
2019-06-08T22:52:11.955Z,59.60
2019-06-08T22:54:42.443Z,59.30
2019-06-08T22:57:12.469Z,59.40
2019-06-08T22:59:42.526Z,59.50
2019-06-08T23:02:12.535Z,59.80
2019-06-08T23:04:42.529Z,60.40
2019-06-08T23:07:25.654Z,60.00
2019-06-08T23:09:44.268Z,60.10
2019-06-08T23:12:14.398Z,60.30
2019-06-08T23:14:44.519Z,60.40
2019-06-08T23:17:14.732Z,60.60
2019-06-08T23:19:44.739Z,60.70
2019-06-08T23:22:14.920Z,60.70
2019-06-08T23:24:44.880Z,60.60
2019-06-08T23:27:14.816Z,60.60
2019-06-08T23:29:44.853Z,60.40
2019-06-08T23:32:14.916Z,60.50
2019-06-08T23:34:44.863Z,60.40
2019-06-08T23:37:14.836Z,60.80
2019-06-08T23:39:46.985Z,60.50
2019-06-08T23:42:17.866Z,60.40
2019-06-08T23:44:47.950Z,60.40
2019-06-08T23:47:18.005Z,60.40
2019-06-08T23:49:47.981Z,60.30
2019-06-08T23:52:18.041Z,60.60
2019-06-08T23:54:48.124Z,60.70
2019-06-08T23:57:18.124Z,60.60
2019-06-08T23:59:48.088Z,60.60
